sensor_id;sensor_type;location;lat;lon;timestamp;temperature;humidity
28767;DHT22;15921;52.034;20.650;2022-09-27T00:02:13;11.40;99.90
28767;DHT22;15921;52.034;20.650;2022-09-27T00:04:39;11.40;99.90
28767;DHT22;15921;52.034;20.650;2022-09-27T00:07:04;11.30;99.90
28767;DHT22;15921;52.034;20.650;2022-09-27T00:09:31;11.20;99.90
28767;DHT22;15921;52.034;20.650;2022-09-27T00:11:57;11.10;99.90
28767;DHT22;15921;52.034;20.650;2022-09-27T00:14:23;11.00;99.90
28767;DHT22;15921;52.034;20.650;2022-09-27T00:16:49;11.00;99.90
28767;DHT22;15921;52.034;20.650;2022-09-27T00:19:20;10.90;99.90
28767;DHT22;15921;52.034;20.650;2022-09-27T00:21:48;10.90;99.90
28767;DHT22;15921;52.034;20.650;2022-09-27T00:24:19;10.80;99.90
28767;DHT22;15921;52.034;20.650;2022-09-27T00:26:46;10.80;99.90
28767;DHT22;15921;52.034;20.650;2022-09-27T00:29:13;10.70;99.90
28767;DHT22;15921;52.034;20.650;2022-09-27T00:31:39;10.70;99.90
28767;DHT22;15921;52.034;20.650;2022-09-27T00:34:06;10.60;99.90
28767;DHT22;15921;52.034;20.650;2022-09-27T00:36:33;10.60;99.90
28767;DHT22;15921;52.034;20.650;2022-09-27T00:38:59;10.50;99.90
28767;DHT22;15921;52.034;20.650;2022-09-27T00:41:28;10.40;99.90
28767;DHT22;15921;52.034;20.650;2022-09-27T00:44:00;10.40;99.90
28767;DHT22;15921;52.034;20.650;2022-09-27T00:46:41;10.40;99.90
28767;DHT22;15921;52.034;20.650;2022-09-27T00:49:20;10.20;99.90
28767;DHT22;15921;52.034;20.650;2022-09-27T00:51:50;10.10;99.90
28767;DHT22;15921;52.034;20.650;2022-09-27T00:54:18;10.10;99.90
28767;DHT22;15921;52.034;20.650;2022-09-27T00:56:46;10.00;99.90
28767;DHT22;15921;52.034;20.650;2022-09-27T00:59:14;10.00;99.90
28767;DHT22;15921;52.034;20.650;2022-09-27T01:01:42;9.90;99.90
28767;DHT22;15921;52.034;20.650;2022-09-27T01:04:13;9.80;99.90
28767;DHT22;15921;52.034;20.650;2022-09-27T01:06:39;9.90;99.90
28767;DHT22;15921;52.034;20.650;2022-09-27T01:09:09;9.90;99.90
28767;DHT22;15921;52.034;20.650;2022-09-27T01:12:04;10.00;99.90
28767;DHT22;15921;52.034;20.650;2022-09-27T01:14:55;10.10;99.90
28767;DHT22;15921;52.034;20.650;2022-09-27T01:20:23;10.40;99.90
28767;DHT22;15921;52.034;20.650;2022-09-27T01:24:02;10.50;99.90
28767;DHT22;15921;52.034;20.650;2022-09-27T01:26:22;10.60;99.90
28767;DHT22;15921;52.034;20.650;2022-09-27T01:29:29;10.60;99.90
28767;DHT22;15921;52.034;20.650;2022-09-27T01:34:50;10.80;99.90
28767;DHT22;15921;52.034;20.650;2022-09-27T01:37:37;10.90;99.90
28767;DHT22;15921;52.034;20.650;2022-09-27T01:43:26;10.90;99.90
28767;DHT22;15921;52.034;20.650;2022-09-27T01:45:57;11.00;99.90
28767;DHT22;15921;52.034;20.650;2022-09-27T01:48:30;11.00;99.90
28767;DHT22;15921;52.034;20.650;2022-09-27T01:51:06;11.10;99.90
28767;DHT22;15921;52.034;20.650;2022-09-27T01:53:53;11.10;99.90
28767;DHT22;15921;52.034;20.650;2022-09-27T01:56:29;11.10;99.90
28767;DHT22;15921;52.034;20.650;2022-09-27T01:59:19;11.20;99.90
28767;DHT22;15921;52.034;20.650;2022-09-27T02:01:49;11.30;99.90
28767;DHT22;15921;52.034;20.650;2022-09-27T02:04:19;11.30;99.90
28767;DHT22;15921;52.034;20.650;2022-09-27T02:06:48;11.40;99.90
28767;DHT22;15921;52.034;20.650;2022-09-27T02:09:26;11.50;99.90
28767;DHT22;15921;52.034;20.650;2022-09-27T02:11:57;11.50;99.90
28767;DHT22;15921;52.034;20.650;2022-09-27T02:14:37;11.50;99.90
28767;DHT22;15921;52.034;20.650;2022-09-27T02:17:12;11.50;99.90
28767;DHT22;15921;52.034;20.650;2022-09-27T02:19:55;11.50;99.90
28767;DHT22;15921;52.034;20.650;2022-09-27T02:22:55;11.50;99.90
28767;DHT22;15921;52.034;20.650;2022-09-27T02:30:50;11.50;99.90
28767;DHT22;15921;52.034;20.650;2022-09-27T02:33:18;11.50;99.90
28767;DHT22;15921;52.034;20.650;2022-09-27T02:35:45;11.50;99.90
28767;DHT22;15921;52.034;20.650;2022-09-27T02:38:11;11.40;99.90
28767;DHT22;15921;52.034;20.650;2022-09-27T02:40:43;11.40;99.90
28767;DHT22;15921;52.034;20.650;2022-09-27T02:43:10;11.40;99.90
28767;DHT22;15921;52.034;20.650;2022-09-27T02:48:46;11.40;99.90
28767;DHT22;15921;52.034;20.650;2022-09-27T02:59:46;11.40;99.90
28767;DHT22;15921;52.034;20.650;2022-09-27T03:02:31;11.30;99.90
28767;DHT22;15921;52.034;20.650;2022-09-27T03:05:05;11.30;99.90
28767;DHT22;15921;52.034;20.650;2022-09-27T03:07:33;11.20;99.90
28767;DHT22;15921;52.034;20.650;2022-09-27T03:09:59;11.20;99.90
28767;DHT22;15921;52.034;20.650;2022-09-27T03:12:25;11.30;99.90
28767;DHT22;15921;52.034;20.650;2022-09-27T03:14:57;11.20;99.90
28767;DHT22;15921;52.034;20.650;2022-09-27T03:17:23;11.20;99.90
28767;DHT22;15921;52.034;20.650;2022-09-27T03:19:49;11.20;99.90
28767;DHT22;15921;52.034;20.650;2022-09-27T03:22:15;11.30;99.90
28767;DHT22;15921;52.034;20.650;2022-09-27T03:24:41;11.40;99.90
28767;DHT22;15921;52.034;20.650;2022-09-27T03:27:07;11.30;99.90
28767;DHT22;15921;52.034;20.650;2022-09-27T03:29:33;11.30;99.90
28767;DHT22;15921;52.034;20.650;2022-09-27T03:31:59;11.40;99.90
28767;DHT22;15921;52.034;20.650;2022-09-27T03:34:24;11.40;99.90
28767;DHT22;15921;52.034;20.650;2022-09-27T03:36:50;11.50;99.90
28767;DHT22;15921;52.034;20.650;2022-09-27T03:39:17;11.50;99.90
28767;DHT22;15921;52.034;20.650;2022-09-27T03:41:42;11.50;99.90
28767;DHT22;15921;52.034;20.650;2022-09-27T03:44:08;11.50;99.90
28767;DHT22;15921;52.034;20.650;2022-09-27T03:46:34;11.60;99.90
28767;DHT22;15921;52.034;20.650;2022-09-27T03:49:00;11.60;99.90
28767;DHT22;15921;52.034;20.650;2022-09-27T03:51:25;11.60;99.90
28767;DHT22;15921;52.034;20.650;2022-09-27T03:53:52;11.60;99.90
28767;DHT22;15921;52.034;20.650;2022-09-27T03:56:18;11.70;99.90
28767;DHT22;15921;52.034;20.650;2022-09-27T03:58:43;11.60;99.90
28767;DHT22;15921;52.034;20.650;2022-09-27T04:01:10;11.60;99.90
28767;DHT22;15921;52.034;20.650;2022-09-27T04:03:35;11.50;99.90
28767;DHT22;15921;52.034;20.650;2022-09-27T04:06:03;11.50;99.90
28767;DHT22;15921;52.034;20.650;2022-09-27T04:08:29;11.50;99.90
28767;DHT22;15921;52.034;20.650;2022-09-27T04:10:55;11.50;99.90
28767;DHT22;15921;52.034;20.650;2022-09-27T04:13:21;11.50;99.90
28767;DHT22;15921;52.034;20.650;2022-09-27T04:15:47;11.50;99.90
28767;DHT22;15921;52.034;20.650;2022-09-27T04:18:13;11.50;99.90
28767;DHT22;15921;52.034;20.650;2022-09-27T04:20:39;11.50;99.90
28767;DHT22;15921;52.034;20.650;2022-09-27T04:23:05;11.50;99.90
28767;DHT22;15921;52.034;20.650;2022-09-27T04:25:31;11.40;99.90
28767;DHT22;15921;52.034;20.650;2022-09-27T04:27:58;11.30;99.90
28767;DHT22;15921;52.034;20.650;2022-09-27T04:30:24;11.20;99.90
28767;DHT22;15921;52.034;20.650;2022-09-27T04:32:51;11.00;99.90
28767;DHT22;15921;52.034;20.650;2022-09-27T04:35:17;11.00;99.90
28767;DHT22;15921;52.034;20.650;2022-09-27T04:38:01;11.00;99.90
28767;DHT22;15921;52.034;20.650;2022-09-27T04:40:27;11.00;99.90
28767;DHT22;15921;52.034;20.650;2022-09-27T04:42:54;10.90;99.90
28767;DHT22;15921;52.034;20.650;2022-09-27T04:45:21;10.80;99.90
28767;DHT22;15921;52.034;20.650;2022-09-27T04:47:48;10.80;99.90
28767;DHT22;15921;52.034;20.650;2022-09-27T04:50:15;10.70;99.90
28767;DHT22;15921;52.034;20.650;2022-09-27T04:52:52;10.70;99.90
28767;DHT22;15921;52.034;20.650;2022-09-27T04:55:19;10.70;99.90
28767;DHT22;15921;52.034;20.650;2022-09-27T04:57:46;10.70;99.90
28767;DHT22;15921;52.034;20.650;2022-09-27T05:00:12;10.80;99.90
28767;DHT22;15921;52.034;20.650;2022-09-27T05:02:39;10.80;99.90
28767;DHT22;15921;52.034;20.650;2022-09-27T05:05:04;10.80;99.90
28767;DHT22;15921;52.034;20.650;2022-09-27T05:07:33;10.80;99.90
28767;DHT22;15921;52.034;20.650;2022-09-27T05:09:59;10.90;99.90
28767;DHT22;15921;52.034;20.650;2022-09-27T05:12:25;10.90;99.90
28767;DHT22;15921;52.034;20.650;2022-09-27T05:14:52;10.90;99.90
28767;DHT22;15921;52.034;20.650;2022-09-27T05:17:18;11.00;99.90
28767;DHT22;15921;52.034;20.650;2022-09-27T05:19:45;11.00;99.90
28767;DHT22;15921;52.034;20.650;2022-09-27T05:22:11;11.00;99.90
28767;DHT22;15921;52.034;20.650;2022-09-27T05:24:36;11.00;99.90
28767;DHT22;15921;52.034;20.650;2022-09-27T05:27:03;11.10;99.90
28767;DHT22;15921;52.034;20.650;2022-09-27T05:29:33;11.20;99.90
28767;DHT22;15921;52.034;20.650;2022-09-27T05:32:00;11.30;99.90
28767;DHT22;15921;52.034;20.650;2022-09-27T05:34:26;11.40;99.90
28767;DHT22;15921;52.034;20.650;2022-09-27T05:36:52;11.40;99.90
28767;DHT22;15921;52.034;20.650;2022-09-27T05:39:17;11.60;99.90
28767;DHT22;15921;52.034;20.650;2022-09-27T05:41:44;11.60;99.90
28767;DHT22;15921;52.034;20.650;2022-09-27T05:44:11;11.70;99.90
28767;DHT22;15921;52.034;20.650;2022-09-27T05:46:38;11.70;99.90
28767;DHT22;15921;52.034;20.650;2022-09-27T05:49:04;11.70;99.90
28767;DHT22;15921;52.034;20.650;2022-09-27T05:51:31;11.80;99.90
28767;DHT22;15921;52.034;20.650;2022-09-27T05:53:56;11.90;99.90
28767;DHT22;15921;52.034;20.650;2022-09-27T05:56:22;12.00;99.90
28767;DHT22;15921;52.034;20.650;2022-09-27T05:58:49;12.10;99.90
28767;DHT22;15921;52.034;20.650;2022-09-27T06:01:18;12.10;99.90
28767;DHT22;15921;52.034;20.650;2022-09-27T06:03:44;12.10;99.90
28767;DHT22;15921;52.034;20.650;2022-09-27T06:06:12;12.10;99.90
28767;DHT22;15921;52.034;20.650;2022-09-27T06:08:38;12.10;99.90
28767;DHT22;15921;52.034;20.650;2022-09-27T06:11:07;12.10;99.90
28767;DHT22;15921;52.034;20.650;2022-09-27T06:13:34;12.30;99.90
28767;DHT22;15921;52.034;20.650;2022-09-27T06:16:04;12.30;99.90
28767;DHT22;15921;52.034;20.650;2022-09-27T06:18:30;12.40;99.90
28767;DHT22;15921;52.034;20.650;2022-09-27T06:21:00;12.40;99.90
28767;DHT22;15921;52.034;20.650;2022-09-27T06:23:27;12.40;99.90
28767;DHT22;15921;52.034;20.650;2022-09-27T06:25:53;12.50;99.90
28767;DHT22;15921;52.034;20.650;2022-09-27T06:28:21;12.50;99.90
28767;DHT22;15921;52.034;20.650;2022-09-27T06:30:50;12.40;99.90
28767;DHT22;15921;52.034;20.650;2022-09-27T06:33:20;12.30;99.90
28767;DHT22;15921;52.034;20.650;2022-09-27T06:35:46;12.20;99.90
28767;DHT22;15921;52.034;20.650;2022-09-27T06:38:16;12.20;99.90
28767;DHT22;15921;52.034;20.650;2022-09-27T06:40:43;12.20;99.90
28767;DHT22;15921;52.034;20.650;2022-09-27T06:43:12;12.20;99.90
28767;DHT22;15921;52.034;20.650;2022-09-27T06:45:38;12.40;99.90
28767;DHT22;15921;52.034;20.650;2022-09-27T06:48:05;12.50;99.90
28767;DHT22;15921;52.034;20.650;2022-09-27T06:50:36;12.50;99.90
28767;DHT22;15921;52.034;20.650;2022-09-27T06:53:04;12.50;99.90
28767;DHT22;15921;52.034;20.650;2022-09-27T06:55:30;12.60;99.90
28767;DHT22;15921;52.034;20.650;2022-09-27T06:57:57;12.70;99.90
28767;DHT22;15921;52.034;20.650;2022-09-27T07:00:41;12.60;99.90
28767;DHT22;15921;52.034;20.650;2022-09-27T07:03:09;12.70;99.90
28767;DHT22;15921;52.034;20.650;2022-09-27T07:05:39;12.80;99.90
28767;DHT22;15921;52.034;20.650;2022-09-27T07:08:08;13.00;99.90
28767;DHT22;15921;52.034;20.650;2022-09-27T07:10:36;13.10;99.90
28767;DHT22;15921;52.034;20.650;2022-09-27T07:13:06;13.20;99.90
28767;DHT22;15921;52.034;20.650;2022-09-27T07:15:33;13.30;99.90
28767;DHT22;15921;52.034;20.650;2022-09-27T07:18:01;13.30;99.90
28767;DHT22;15921;52.034;20.650;2022-09-27T07:20:27;13.40;99.90
28767;DHT22;15921;52.034;20.650;2022-09-27T07:22:57;13.40;99.90
28767;DHT22;15921;52.034;20.650;2022-09-27T07:25:23;13.40;99.90
28767;DHT22;15921;52.034;20.650;2022-09-27T07:27:50;13.40;99.90
28767;DHT22;15921;52.034;20.650;2022-09-27T07:30:19;13.40;99.90
28767;DHT22;15921;52.034;20.650;2022-09-27T07:32:46;13.50;99.90
28767;DHT22;15921;52.034;20.650;2022-09-27T07:35:12;13.50;99.90
28767;DHT22;15921;52.034;20.650;2022-09-27T07:37:41;13.70;99.90
28767;DHT22;15921;52.034;20.650;2022-09-27T07:40:08;13.70;99.90
28767;DHT22;15921;52.034;20.650;2022-09-27T07:42:35;13.70;99.90
28767;DHT22;15921;52.034;20.650;2022-09-27T07:45:06;13.80;99.90
28767;DHT22;15921;52.034;20.650;2022-09-27T07:47:32;13.60;99.90
28767;DHT22;15921;52.034;20.650;2022-09-27T07:49:58;13.60;99.90
28767;DHT22;15921;52.034;20.650;2022-09-27T07:52:24;13.50;99.90
28767;DHT22;15921;52.034;20.650;2022-09-27T07:54:50;13.30;99.90
28767;DHT22;15921;52.034;20.650;2022-09-27T07:57:15;13.20;99.90
28767;DHT22;15921;52.034;20.650;2022-09-27T07:59:41;13.20;99.90
28767;DHT22;15921;52.034;20.650;2022-09-27T08:02:15;13.40;99.90
28767;DHT22;15921;52.034;20.650;2022-09-27T08:04:41;13.60;99.90
28767;DHT22;15921;52.034;20.650;2022-09-27T08:07:12;13.70;99.90
28767;DHT22;15921;52.034;20.650;2022-09-27T08:09:38;13.80;99.90
28767;DHT22;15921;52.034;20.650;2022-09-27T08:12:04;13.90;99.90
28767;DHT22;15921;52.034;20.650;2022-09-27T08:14:30;14.10;99.90
28767;DHT22;15921;52.034;20.650;2022-09-27T08:16:56;14.20;99.90
28767;DHT22;15921;52.034;20.650;2022-09-27T08:19:22;14.30;99.90
28767;DHT22;15921;52.034;20.650;2022-09-27T08:21:50;14.30;99.90
28767;DHT22;15921;52.034;20.650;2022-09-27T08:24:15;14.50;99.90
28767;DHT22;15921;52.034;20.650;2022-09-27T08:26:41;14.60;99.90
28767;DHT22;15921;52.034;20.650;2022-09-27T08:29:07;14.90;99.90
28767;DHT22;15921;52.034;20.650;2022-09-27T08:31:33;15.10;99.90
28767;DHT22;15921;52.034;20.650;2022-09-27T08:33:58;15.30;99.90
28767;DHT22;15921;52.034;20.650;2022-09-27T08:36:24;15.50;99.90
28767;DHT22;15921;52.034;20.650;2022-09-27T08:38:50;15.50;99.90
28767;DHT22;15921;52.034;20.650;2022-09-27T08:49:26;15.60;99.90
28767;DHT22;15921;52.034;20.650;2022-09-27T08:51:54;15.70;99.90
28767;DHT22;15921;52.034;20.650;2022-09-27T08:54:27;15.60;99.90
28767;DHT22;15921;52.034;20.650;2022-09-27T08:57:03;15.70;99.90
28767;DHT22;15921;52.034;20.650;2022-09-27T08:59:34;15.90;99.90
28767;DHT22;15921;52.034;20.650;2022-09-27T09:02:04;15.90;99.90
28767;DHT22;15921;52.034;20.650;2022-09-27T09:04:39;15.90;99.90
28767;DHT22;15921;52.034;20.650;2022-09-27T09:35:21;16.60;99.90
28767;DHT22;15921;52.034;20.650;2022-09-27T09:37:52;16.60;99.90
28767;DHT22;15921;52.034;20.650;2022-09-27T09:45:47;16.90;99.90
28767;DHT22;15921;52.034;20.650;2022-09-27T09:50:59;17.00;99.90
28767;DHT22;15921;52.034;20.650;2022-09-27T09:53:59;16.90;99.90
28767;DHT22;15921;52.034;20.650;2022-09-27T09:56:33;16.80;99.90
28767;DHT22;15921;52.034;20.650;2022-09-27T09:59:33;16.70;99.90
28767;DHT22;15921;52.034;20.650;2022-09-27T10:02:20;16.70;99.90
28767;DHT22;15921;52.034;20.650;2022-09-27T10:04:48;16.70;99.90
28767;DHT22;15921;52.034;20.650;2022-09-27T10:07:15;16.60;99.90
28767;DHT22;15921;52.034;20.650;2022-09-27T10:09:44;16.50;99.90
28767;DHT22;15921;52.034;20.650;2022-09-27T10:12:10;16.30;99.90
28767;DHT22;15921;52.034;20.650;2022-09-27T10:14:37;16.10;99.90
28767;DHT22;15921;52.034;20.650;2022-09-27T10:17:09;16.00;99.90
28767;DHT22;15921;52.034;20.650;2022-09-27T10:19:37;16.00;99.90
28767;DHT22;15921;52.034;20.650;2022-09-27T10:27:19;16.10;99.90
28767;DHT22;15921;52.034;20.650;2022-09-27T10:29:45;15.90;99.90
28767;DHT22;15921;52.034;20.650;2022-09-27T10:32:26;15.80;99.90
28767;DHT22;15921;52.034;20.650;2022-09-27T10:34:55;15.90;99.90
28767;DHT22;15921;52.034;20.650;2022-09-27T10:37:22;15.90;99.90
28767;DHT22;15921;52.034;20.650;2022-09-27T10:39:49;15.80;99.90
28767;DHT22;15921;52.034;20.650;2022-09-27T10:42:20;15.80;99.90
28767;DHT22;15921;52.034;20.650;2022-09-27T10:44:46;15.70;99.90
28767;DHT22;15921;52.034;20.650;2022-09-27T10:47:16;15.60;99.90
28767;DHT22;15921;52.034;20.650;2022-09-27T10:49:47;15.40;99.90
28767;DHT22;15921;52.034;20.650;2022-09-27T10:52:22;15.40;99.90
28767;DHT22;15921;52.034;20.650;2022-09-27T10:55:15;15.50;99.90
28767;DHT22;15921;52.034;20.650;2022-09-27T10:57:48;15.50;99.90
28767;DHT22;15921;52.034;20.650;2022-09-27T11:00:35;15.60;99.90
28767;DHT22;15921;52.034;20.650;2022-09-27T11:03:06;15.80;99.90
28767;DHT22;15921;52.034;20.650;2022-09-27T11:05:38;15.80;99.90
28767;DHT22;15921;52.034;20.650;2022-09-27T11:08:28;15.90;99.90
28767;DHT22;15921;52.034;20.650;2022-09-27T11:13:38;16.00;99.90
28767;DHT22;15921;52.034;20.650;2022-09-27T11:18:53;16.10;99.90
28767;DHT22;15921;52.034;20.650;2022-09-27T11:40:00;17.30;99.90
28767;DHT22;15921;52.034;20.650;2022-09-27T11:48:43;17.80;99.90
28767;DHT22;15921;52.034;20.650;2022-09-27T11:57:08;18.70;99.90
28767;DHT22;15921;52.034;20.650;2022-09-27T12:00:14;19.00;99.90
28767;DHT22;15921;52.034;20.650;2022-09-27T12:05:41;19.90;99.90
28767;DHT22;15921;52.034;20.650;2022-09-27T12:13:40;21.20;99.90
28767;DHT22;15921;52.034;20.650;2022-09-27T12:16:08;22.50;99.90
28767;DHT22;15921;52.034;20.650;2022-09-27T12:18:37;23.70;99.90
28767;DHT22;15921;52.034;20.650;2022-09-27T12:21:06;24.20;95.40
28767;DHT22;15921;52.034;20.650;2022-09-27T12:23:49;23.90;94.40
28767;DHT22;15921;52.034;20.650;2022-09-27T12:26:36;23.70;93.90
28767;DHT22;15921;52.034;20.650;2022-09-27T12:29:24;24.30;89.70
28767;DHT22;15921;52.034;20.650;2022-09-27T12:34:47;23.20;93.50
28767;DHT22;15921;52.034;20.650;2022-09-27T12:37:22;24.80;90.60
28767;DHT22;15921;52.034;20.650;2022-09-27T12:42:56;26.40;77.90
28767;DHT22;15921;52.034;20.650;2022-09-27T12:45:49;25.50;77.70
28767;DHT22;15921;52.034;20.650;2022-09-27T12:50:57;24.10;83.40
28767;DHT22;15921;52.034;20.650;2022-09-27T12:53:31;24.60;82.00
28767;DHT22;15921;52.034;20.650;2022-09-27T12:56:23;24.50;81.50
28767;DHT22;15921;52.034;20.650;2022-09-27T13:02:24;23.50;85.30
28767;DHT22;15921;52.034;20.650;2022-09-27T13:10:06;28.80;66.70
28767;DHT22;15921;52.034;20.650;2022-09-27T13:12:36;28.60;65.50
28767;DHT22;15921;52.034;20.650;2022-09-27T13:22:58;29.40;60.00
28767;DHT22;15921;52.034;20.650;2022-09-27T13:28:30;29.00;61.10
28767;DHT22;15921;52.034;20.650;2022-09-27T13:30:58;28.70;61.50
28767;DHT22;15921;52.034;20.650;2022-09-27T13:33:43;28.30;62.50
28767;DHT22;15921;52.034;20.650;2022-09-27T13:38:55;26.60;65.00
28767;DHT22;15921;52.034;20.650;2022-09-27T13:41:30;25.50;67.30
28767;DHT22;15921;52.034;20.650;2022-09-27T13:47:12;24.00;71.70
28767;DHT22;15921;52.034;20.650;2022-09-27T13:49:43;23.50;74.80
28767;DHT22;15921;52.034;20.650;2022-09-27T13:52:28;23.20;77.20
28767;DHT22;15921;52.034;20.650;2022-09-27T13:55:00;22.90;80.00
28767;DHT22;15921;52.034;20.650;2022-09-27T13:57:45;22.80;83.00
28767;DHT22;15921;52.034;20.650;2022-09-27T14:02:54;22.50;87.00
28767;DHT22;15921;52.034;20.650;2022-09-27T14:05:26;22.20;89.40
28767;DHT22;15921;52.034;20.650;2022-09-27T14:07:52;21.70;91.60
28767;DHT22;15921;52.034;20.650;2022-09-27T14:10:21;21.40;93.70
28767;DHT22;15921;52.034;20.650;2022-09-27T14:12:49;21.20;95.50
28767;DHT22;15921;52.034;20.650;2022-09-27T14:15:25;21.00;96.40
28767;DHT22;15921;52.034;20.650;2022-09-27T14:17:52;20.90;98.30
28767;DHT22;15921;52.034;20.650;2022-09-27T14:23:41;20.70;99.00
28767;DHT22;15921;52.034;20.650;2022-09-27T14:26:24;20.40;99.90
28767;DHT22;15921;52.034;20.650;2022-09-27T14:28:51;20.40;99.90
28767;DHT22;15921;52.034;20.650;2022-09-27T14:31:22;20.30;99.90
28767;DHT22;15921;52.034;20.650;2022-09-27T14:33:48;20.40;99.90
28767;DHT22;15921;52.034;20.650;2022-09-27T14:36:26;20.50;99.90
28767;DHT22;15921;52.034;20.650;2022-09-27T14:39:21;20.60;99.90
28767;DHT22;15921;52.034;20.650;2022-09-27T14:41:47;20.50;99.90
28767;DHT22;15921;52.034;20.650;2022-09-27T14:44:15;20.40;99.90
28767;DHT22;15921;52.034;20.650;2022-09-27T14:46:41;20.40;99.90
28767;DHT22;15921;52.034;20.650;2022-09-27T14:49:21;20.40;99.90
28767;DHT22;15921;52.034;20.650;2022-09-27T14:51:55;20.30;99.90
28767;DHT22;15921;52.034;20.650;2022-09-27T14:54:26;20.30;99.90
28767;DHT22;15921;52.034;20.650;2022-09-27T14:56:53;20.20;99.90
28767;DHT22;15921;52.034;20.650;2022-09-27T15:01:52;21.40;99.90
28767;DHT22;15921;52.034;20.650;2022-09-27T15:04:20;22.40;98.80
28767;DHT22;15921;52.034;20.650;2022-09-27T15:06:48;22.80;95.30
28767;DHT22;15921;52.034;20.650;2022-09-27T15:09:14;22.70;94.70
28767;DHT22;15921;52.034;20.650;2022-09-27T15:11:42;23.20;92.90
28767;DHT22;15921;52.034;20.650;2022-09-27T15:14:14;23.50;91.30
28767;DHT22;15921;52.034;20.650;2022-09-27T15:16:41;23.70;90.20
28767;DHT22;15921;52.034;20.650;2022-09-27T15:19:16;23.70;89.40
28767;DHT22;15921;52.034;20.650;2022-09-27T15:21:46;24.20;85.70
28767;DHT22;15921;52.034;20.650;2022-09-27T15:24:38;24.60;82.40
28767;DHT22;15921;52.034;20.650;2022-09-27T15:27:18;24.60;80.00
28767;DHT22;15921;52.034;20.650;2022-09-27T15:30:04;24.00;81.40
28767;DHT22;15921;52.034;20.650;2022-09-27T15:32:30;23.50;83.20
28767;DHT22;15921;52.034;20.650;2022-09-27T15:34:56;23.00;86.30
28767;DHT22;15921;52.034;20.650;2022-09-27T15:37:35;22.30;89.90
28767;DHT22;15921;52.034;20.650;2022-09-27T15:46:03;19.70;99.90
28767;DHT22;15921;52.034;20.650;2022-09-27T15:48:31;19.20;99.90
28767;DHT22;15921;52.034;20.650;2022-09-27T15:50:58;18.80;99.90
28767;DHT22;15921;52.034;20.650;2022-09-27T15:53:39;18.40;99.90
28767;DHT22;15921;52.034;20.650;2022-09-27T15:56:05;18.00;99.90
28767;DHT22;15921;52.034;20.650;2022-09-27T15:58:32;17.60;99.90
28767;DHT22;15921;52.034;20.650;2022-09-27T16:01:01;17.30;99.90
28767;DHT22;15921;52.034;20.650;2022-09-27T16:03:33;17.20;99.90
28767;DHT22;15921;52.034;20.650;2022-09-27T16:06:00;17.00;99.90
28767;DHT22;15921;52.034;20.650;2022-09-27T16:08:27;16.80;99.90
28767;DHT22;15921;52.034;20.650;2022-09-27T16:10:58;16.60;99.90
28767;DHT22;15921;52.034;20.650;2022-09-27T16:13:25;16.40;99.90
28767;DHT22;15921;52.034;20.650;2022-09-27T16:15:51;16.30;99.90
28767;DHT22;15921;52.034;20.650;2022-09-27T16:18:17;16.10;99.90
28767;DHT22;15921;52.034;20.650;2022-09-27T16:20:43;16.00;99.90
28767;DHT22;15921;52.034;20.650;2022-09-27T16:23:08;15.80;99.90
28767;DHT22;15921;52.034;20.650;2022-09-27T16:25:34;15.70;99.90
28767;DHT22;15921;52.034;20.650;2022-09-27T16:28:02;15.60;99.90
28767;DHT22;15921;52.034;20.650;2022-09-27T16:30:28;15.50;99.90
28767;DHT22;15921;52.034;20.650;2022-09-27T16:32:54;15.50;99.90
28767;DHT22;15921;52.034;20.650;2022-09-27T16:35:23;15.50;99.90
28767;DHT22;15921;52.034;20.650;2022-09-27T16:37:49;15.40;99.90
28767;DHT22;15921;52.034;20.650;2022-09-27T16:40:15;15.40;99.90
28767;DHT22;15921;52.034;20.650;2022-09-27T16:42:47;15.40;99.90
28767;DHT22;15921;52.034;20.650;2022-09-27T16:45:13;15.30;99.90
28767;DHT22;15921;52.034;20.650;2022-09-27T16:47:41;15.30;99.90
28767;DHT22;15921;52.034;20.650;2022-09-27T16:50:08;15.20;99.90
28767;DHT22;15921;52.034;20.650;2022-09-27T16:52:53;15.10;99.90
28767;DHT22;15921;52.034;20.650;2022-09-27T16:55:19;14.90;99.90
28767;DHT22;15921;52.034;20.650;2022-09-27T16:57:46;14.90;99.90
28767;DHT22;15921;52.034;20.650;2022-09-27T17:00:12;14.80;99.90
28767;DHT22;15921;52.034;20.650;2022-09-27T17:02:38;14.80;99.90
28767;DHT22;15921;52.034;20.650;2022-09-27T17:05:05;14.80;99.90
28767;DHT22;15921;52.034;20.650;2022-09-27T17:07:31;14.70;99.90
28767;DHT22;15921;52.034;20.650;2022-09-27T17:09:56;14.70;99.90
28767;DHT22;15921;52.034;20.650;2022-09-27T17:12:22;14.70;99.90
28767;DHT22;15921;52.034;20.650;2022-09-27T17:14:49;14.60;99.90
28767;DHT22;15921;52.034;20.650;2022-09-27T17:17:15;14.40;99.90
28767;DHT22;15921;52.034;20.650;2022-09-27T17:19:40;14.30;99.90
28767;DHT22;15921;52.034;20.650;2022-09-27T17:22:06;14.10;99.90
28767;DHT22;15921;52.034;20.650;2022-09-27T17:24:33;14.00;99.90
28767;DHT22;15921;52.034;20.650;2022-09-27T17:26:59;13.90;99.90
28767;DHT22;15921;52.034;20.650;2022-09-27T17:29:25;13.80;99.90
28767;DHT22;15921;52.034;20.650;2022-09-27T17:31:51;13.80;99.90
28767;DHT22;15921;52.034;20.650;2022-09-27T17:34:17;13.70;99.90
28767;DHT22;15921;52.034;20.650;2022-09-27T17:36:44;13.60;99.90
28767;DHT22;15921;52.034;20.650;2022-09-27T17:39:18;13.60;99.90
28767;DHT22;15921;52.034;20.650;2022-09-27T17:41:47;13.60;99.90
28767;DHT22;15921;52.034;20.650;2022-09-27T17:44:14;13.50;99.90
28767;DHT22;15921;52.034;20.650;2022-09-27T17:46:41;13.50;99.90
28767;DHT22;15921;52.034;20.650;2022-09-27T17:49:08;13.50;99.90
28767;DHT22;15921;52.034;20.650;2022-09-27T17:51:53;13.50;99.90
28767;DHT22;15921;52.034;20.650;2022-09-27T17:54:21;13.50;99.90
28767;DHT22;15921;52.034;20.650;2022-09-27T17:56:48;13.50;99.90
28767;DHT22;15921;52.034;20.650;2022-09-27T17:59:15;13.50;99.90
28767;DHT22;15921;52.034;20.650;2022-09-27T18:01:43;13.50;99.90
28767;DHT22;15921;52.034;20.650;2022-09-27T18:04:11;13.50;99.90
28767;DHT22;15921;52.034;20.650;2022-09-27T18:06:39;13.50;99.90
28767;DHT22;15921;52.034;20.650;2022-09-27T18:09:06;13.50;99.90
28767;DHT22;15921;52.034;20.650;2022-09-27T18:11:36;13.50;99.90
28767;DHT22;15921;52.034;20.650;2022-09-27T18:14:02;13.50;99.90
28767;DHT22;15921;52.034;20.650;2022-09-27T18:16:31;13.50;99.90
28767;DHT22;15921;52.034;20.650;2022-09-27T18:19:00;13.50;99.90
28767;DHT22;15921;52.034;20.650;2022-09-27T18:21:27;13.50;99.90
28767;DHT22;15921;52.034;20.650;2022-09-27T18:23:55;13.50;99.90